Time;durP1;ratioP1;P1;durP2;ratioP2;P2;SDS_P1;SDS_P2;PMS_P1;PMS_P2;Temp;Humidity;BMP_temperature;BMP_pressure;BME280_temperature;BME280_humidity;BME280_pressure;Samples;Min_cycle;Max_cycle;Signal;HPM_P1;HPM_P2
2022/07/04 00:00:11;;;;;;;23.33;8.43;;;23.20;99.90;;;;;;4972306;23;20071;-46
2022/07/04 00:02:40;;;;;;;26.50;7.85;;;23.10;99.90;;;;;;4956226;29;20027;-45
2022/07/04 00:05:10;;;;;;;20.10;7.50;;;23.10;99.90;;;;;;4955229;29;20050;-47
2022/07/04 00:07:36;;;;;;;20.27;7.15;;;23.10;99.90;;;;;;4956211;29;20547;-46
2022/07/04 00:10:06;;;;;;;17.67;6.77;;;23.00;99.90;;;;;;4956221;29;20159;-47
2022/07/04 00:12:32;;;;;;;20.33;7.35;;;23.10;99.90;;;;;;4956068;29;20320;-46
2022/07/04 00:14:58;;;;;;;28.40;7.47;;;23.10;99.90;;;;;;4955131;29;20035;-46
2022/07/04 00:17:24;;;;;;;14.40;6.78;;;23.10;99.90;;;;;;4956179;29;20027;-46
2022/07/04 00:19:50;;;;;;;17.02;7.65;;;23.10;99.90;;;;;;4954912;29;20063;-46
2022/07/04 00:22:15;;;;;;;18.33;7.35;;;23.10;99.90;;;;;;4956069;29;20385;-46
2022/07/04 00:24:41;;;;;;;20.95;6.95;;;23.20;99.90;;;;;;4955972;29;20047;-47
2022/07/04 00:27:07;;;;;;;17.27;8.50;;;23.20;99.90;;;;;;4955812;29;20023;-47
2022/07/04 00:29:33;;;;;;;15.70;8.13;;;23.10;99.90;;;;;;4956048;29;20037;-47
2022/07/04 00:31:59;;;;;;;18.83;8.05;;;23.10;99.90;;;;;;4956066;29;20473;-47
2022/07/04 00:34:26;;;;;;;27.10;9.33;;;23.00;99.90;;;;;;4955898;29;20031;-47
2022/07/04 00:36:51;;;;;;;18.25;8.50;;;23.00;99.90;;;;;;4955771;29;20015;-47
2022/07/04 00:39:17;;;;;;;23.48;9.15;;;23.00;99.90;;;;;;4955760;29;20122;-47
2022/07/04 00:41:44;;;;;;;15.10;7.43;;;23.00;99.90;;;;;;4955561;29;20031;-47
2022/07/04 00:44:11;;;;;;;18.48;7.55;;;23.00;99.90;;;;;;4955535;29;20035;-47
2022/07/04 00:46:37;;;;;;;21.25;8.50;;;23.00;99.90;;;;;;4955594;29;20034;-47
2022/07/04 00:49:04;;;;;;;19.60;8.27;;;23.00;99.90;;;;;;4955692;29;20078;-47
2022/07/04 00:51:30;;;;;;;15.93;7.05;;;23.00;99.90;;;;;;4955633;29;20033;-47
2022/07/04 00:53:56;;;;;;;16.13;7.40;;;23.00;99.90;;;;;;4955415;29;20039;-47
2022/07/04 00:56:26;;;;;;;19.25;7.22;;;23.00;99.90;;;;;;4953095;28;20020;-46
2022/07/04 00:58:53;;;;;;;19.13;8.02;;;23.00;99.90;;;;;;4955185;29;20024;-46
2022/07/04 01:01:22;;;;;;;19.85;7.20;;;23.00;99.90;;;;;;4987453;23;20058;-42
2022/07/04 01:03:49;;;;;;;18.40;6.35;;;23.00;99.90;;;;;;4974566;28;20038;-43
2022/07/04 01:06:16;;;;;;;19.98;7.03;;;23.00;99.90;;;;;;4974492;28;20110;-43
2022/07/04 01:08:42;;;;;;;;;;;23.00;99.90;;;;;;4974915;28;20026;-43
2022/07/04 01:11:09;;;;;;;20.25;8.23;;;23.10;99.90;;;;;;4974407;28;19932;-43
2022/07/04 01:13:35;;;;;;;19.93;6.83;;;23.10;99.90;;;;;;4973132;28;20481;-41
2022/07/04 01:16:03;;;;;;;20.88;8.07;;;23.10;99.90;;;;;;4974617;28;20029;-41
2022/07/04 01:18:28;;;;;;;21.92;6.85;;;23.10;99.90;;;;;;4974289;28;20030;-41
2022/07/04 01:20:54;;;;;;;15.40;6.22;;;23.10;99.90;;;;;;4974154;28;20109;-41
2022/07/04 01:23:20;;;;;;;14.10;6.47;;;23.10;99.90;;;;;;4974370;28;20436;-40
2022/07/04 01:25:48;;;;;;;21.95;6.18;;;23.10;99.90;;;;;;4973903;28;20038;-41
2022/07/04 01:28:14;;;;;;;19.15;6.72;;;23.10;99.90;;;;;;4974106;28;20019;-42
2022/07/04 01:30:40;;;;;;;22.45;6.40;;;23.20;99.90;;;;;;4974092;28;20101;-41
2022/07/04 01:33:06;;;;;;;17.67;6.78;;;23.10;99.90;;;;;;4974150;28;20027;-42
2022/07/04 01:35:31;;;;;;;23.48;6.38;;;23.20;99.90;;;;;;4974106;28;20023;-41
2022/07/04 01:37:57;;;;;;;22.15;7.43;;;23.20;99.90;;;;;;4974108;28;20031;-41
2022/07/04 01:40:23;;;;;;;18.60;7.78;;;23.20;99.90;;;;;;4973788;28;20095;-41
2022/07/04 01:42:49;;;;;;;18.80;6.07;;;23.20;99.90;;;;;;4973853;28;20085;-41
2022/07/04 01:45:16;;;;;;;17.92;6.47;;;23.20;99.90;;;;;;4973694;28;20407;-41
2022/07/04 01:47:41;;;;;;;19.02;6.40;;;23.20;99.90;;;;;;4973819;28;20023;-41
2022/07/04 01:50:12;;;;;;;14.57;6.50;;;23.20;99.90;;;;;;4973784;28;20473;-42
2022/07/04 01:52:38;;;;;;;14.88;6.85;;;23.20;99.90;;;;;;4973650;28;20034;-42
2022/07/04 01:55:05;;;;;;;18.10;7.23;;;23.20;99.90;;;;;;4972821;28;20393;-41
2022/07/04 01:57:31;;;;;;;19.60;7.93;;;23.10;99.90;;;;;;4973833;28;20252;-42
2022/07/04 02:02:41;;;;;;;16.58;6.35;;;23.10;99.90;;;;;;4973839;28;20089;-48
2022/07/04 02:05:07;;;;;;;15.10;6.38;;;23.10;99.90;;;;;;4973614;28;20559;-48
2022/07/04 02:07:33;;;;;;;22.45;7.50;;;23.10;99.90;;;;;;4973463;28;20022;-48
2022/07/04 02:09:59;;;;;;;18.70;7.50;;;23.00;99.90;;;;;;4973485;28;20061;-47
2022/07/04 02:15:09;;;;;;;12.45;6.38;;;23.10;99.90;;;;;;4973353;28;20026;-48
2022/07/04 02:17:35;;;;;;;19.13;7.57;;;23.00;99.90;;;;;;4973551;28;20046;-47
2022/07/04 02:20:01;;;;;;;17.77;6.85;;;23.10;99.90;;;;;;4973200;28;20023;-48
2022/07/04 02:22:27;;;;;;;21.95;9.05;;;23.10;99.90;;;;;;4973145;28;20027;-48
2022/07/04 02:24:53;;;;;;;21.73;8.00;;;23.00;99.90;;;;;;4973122;28;20046;-48
2022/07/04 02:27:19;;;;;;;18.17;6.75;;;23.00;99.90;;;;;;4973240;28;20388;-48
2022/07/04 02:29:45;;;;;;;20.00;7.57;;;22.90;99.90;;;;;;4987984;28;20033;-48
2022/07/04 02:32:11;;;;;;;16.30;7.57;;;22.80;99.90;;;;;;4973244;28;20110;-48
2022/07/04 02:34:37;;;;;;;17.05;7.30;;;22.80;99.90;;;;;;4973239;28;20106;-48
2022/07/04 02:37:03;;;;;;;15.18;6.80;;;22.80;99.90;;;;;;4973014;28;20042;-48
2022/07/04 02:39:29;;;;;;;22.58;7.78;;;22.70;99.90;;;;;;4972800;28;20027;-48
2022/07/04 02:41:54;;;;;;;25.25;9.05;;;22.70;99.90;;;;;;4972984;28;20023;-48
2022/07/04 02:44:20;;;;;;;24.52;7.95;;;22.70;99.90;;;;;;4972867;28;20035;-48
2022/07/04 02:46:46;;;;;;;31.70;8.43;;;22.50;99.90;;;;;;4972925;28;20038;-48
2022/07/04 02:49:12;;;;;;;20.85;8.45;;;22.60;99.90;;;;;;4972814;28;20091;-48
2022/07/04 02:51:37;;;;;;;23.42;8.48;;;22.60;99.90;;;;;;4972818;28;20038;-47
2022/07/04 02:54:03;;;;;;;25.40;8.80;;;22.50;99.90;;;;;;4972719;28;20089;-48
2022/07/04 02:56:29;;;;;;;25.38;8.52;;;22.50;99.90;;;;;;4972642;28;20023;-48
2022/07/04 02:58:55;;;;;;;20.40;8.57;;;22.50;99.90;;;;;;4972671;28;20494;-48
2022/07/04 03:01:21;;;;;;;21.00;8.13;;;22.40;99.90;;;;;;4988682;23;20047;-41
2022/07/04 03:03:47;;;;;;;21.90;8.15;;;22.50;99.90;;;;;;4972362;28;20035;-41
2022/07/04 03:06:13;;;;;;;19.48;8.25;;;22.50;99.90;;;;;;4972409;28;20027;-41
2022/07/04 03:08:39;;;;;;;21.00;8.40;;;22.40;99.90;;;;;;4972730;28;20380;-40
2022/07/04 03:11:05;;;;;;;20.85;8.25;;;22.40;99.90;;;;;;4972551;28;20027;-41
2022/07/04 03:13:32;;;;;;;25.10;8.27;;;22.40;99.90;;;;;;4972494;28;20560;-41
2022/07/04 03:15:58;;;;;;;17.08;7.75;;;22.40;99.90;;;;;;4972497;28;20074;-41
2022/07/04 03:18:24;;;;;;;23.60;7.00;;;22.40;99.90;;;;;;4972370;28;20031;-42
2022/07/04 03:20:49;;;;;;;21.13;8.48;;;22.40;99.90;;;;;;4971895;28;20027;-42
2022/07/04 03:23:16;;;;;;;21.35;8.40;;;22.40;99.90;;;;;;4972561;28;20029;-41
2022/07/04 03:25:42;;;;;;;18.67;7.25;;;22.40;99.90;;;;;;4972426;28;20034;-42
2022/07/04 03:28:08;;;;;;;19.60;7.25;;;22.50;99.90;;;;;;4972679;28;20074;-42
2022/07/04 03:30:35;;;;;;;14.70;7.22;;;22.50;99.90;;;;;;4972365;28;20393;-41
2022/07/04 03:33:01;;;;;;;25.45;7.78;;;22.50;99.90;;;;;;4972283;28;20077;-41
2022/07/04 03:35:27;;;;;;;18.85;7.25;;;22.50;99.90;;;;;;4970977;28;20028;-41
2022/07/04 03:37:53;;;;;;;17.80;7.32;;;22.60;99.90;;;;;;4972210;28;20046;-42
2022/07/04 03:40:20;;;;;;;22.55;7.30;;;22.60;99.90;;;;;;4972210;28;20031;-41
2022/07/04 03:42:46;;;;;;;19.88;6.90;;;22.70;99.90;;;;;;4972369;28;20377;-42
2022/07/04 03:45:12;;;;;;;20.48;7.60;;;22.70;99.90;;;;;;4971976;28;20034;-42
2022/07/04 03:47:38;;;;;;;13.98;6.30;;;22.80;99.90;;;;;;4970998;28;20074;-41
2022/07/04 03:50:04;;;;;;;30.70;7.30;;;22.80;99.90;;;;;;4972250;28;20035;-41
2022/07/04 03:52:30;;;;;;;18.48;7.60;;;22.80;99.90;;;;;;4972164;28;20027;-42
2022/07/04 03:54:56;;;;;;;20.90;7.25;;;22.90;99.90;;;;;;4972183;28;20022;-43
2022/07/04 03:57:22;;;;;;;22.40;6.55;;;22.90;99.90;;;;;;4972186;28;20038;-42
2022/07/04 03:59:48;;;;;;;15.07;6.57;;;23.00;99.90;;;;;;4988417;23;20057;-45
2022/07/04 04:02:14;;;;;;;15.80;5.75;;;23.00;99.90;;;;;;4955567;28;20481;-45
2022/07/04 04:07:24;;;;;;;16.52;6.82;;;23.10;99.90;;;;;;4972030;28;20146;-45
2022/07/04 04:09:49;;;;;;;20.23;6.40;;;23.10;99.90;;;;;;4972175;28;20074;-46
2022/07/04 04:12:15;;;;;;;20.38;6.82;;;23.20;99.90;;;;;;4972039;28;20050;-46
2022/07/04 04:14:41;;;;;;;14.73;5.80;;;23.20;99.90;;;;;;4972118;28;20133;-45
2022/07/04 04:17:07;;;;;;;21.58;7.30;;;23.20;99.90;;;;;;4971820;28;20397;-46
2022/07/04 04:19:33;;;;;;;17.50;6.63;;;23.20;99.90;;;;;;4971828;28;20372;-46
2022/07/04 04:21:59;;;;;;;18.70;6.45;;;23.20;99.90;;;;;;4971925;28;20106;-47
2022/07/04 04:24:24;;;;;;;19.83;6.00;;;23.20;99.90;;;;;;4971636;28;20441;-45
2022/07/04 04:26:50;;;;;;;19.17;6.22;;;23.20;99.90;;;;;;4971733;28;20472;-46
2022/07/04 04:29:16;;;;;;;14.35;5.45;;;23.20;99.90;;;;;;4971820;28;20397;-46
2022/07/04 04:31:42;;;;;;;15.98;6.43;;;23.30;99.90;;;;;;4972230;28;20035;-45
2022/07/04 04:34:07;;;;;;;13.55;6.32;;;23.30;99.90;;;;;;4957846;28;20487;-46
2022/07/04 04:36:33;;;;;;;20.13;6.25;;;23.30;99.90;;;;;;4975174;28;20031;-45
2022/07/04 04:38:59;;;;;;;17.08;6.65;;;23.30;99.90;;;;;;4975179;28;20022;-45
2022/07/04 04:41:25;;;;;;;13.38;6.18;;;23.20;99.90;;;;;;4970602;28;20033;-45
2022/07/04 04:43:51;;;;;;;21.20;7.35;;;23.30;99.90;;;;;;4975067;28;20369;-45
2022/07/04 04:46:16;;;;;;;15.32;5.57;;;23.40;99.90;;;;;;4975028;28;20027;-45
2022/07/04 04:48:42;;;;;;;25.23;7.20;;;23.40;99.90;;;;;;4975198;28;20023;-45
2022/07/04 04:51:08;;;;;;;19.77;6.32;;;23.50;99.90;;;;;;4970285;28;20038;-46
2022/07/04 04:53:34;;;;;;;16.75;6.20;;;23.50;99.90;;;;;;4967878;28;20023;-46
2022/07/04 04:56:00;;;;;;;15.23;6.30;;;23.60;99.90;;;;;;4968506;28;20030;-46
2022/07/04 04:58:26;;;;;;;13.48;6.53;;;23.70;99.90;;;;;;4966067;28;20102;-45
2022/07/04 05:00:52;;;;;;;11.98;4.97;;;23.70;99.90;;;;;;4968876;28;20145;-45
2022/07/04 05:03:18;;;;;;;15.50;6.03;;;23.70;99.90;;;;;;4976702;28;20032;-46
2022/07/04 05:05:45;;;;;;;12.93;5.68;;;23.70;99.90;;;;;;4994038;28;20137;-45
2022/07/04 05:08:12;;;;;;;17.33;6.00;;;23.80;99.90;;;;;;4994304;28;20030;-46
2022/07/04 05:10:41;;;;;;;15.13;5.25;;;23.80;99.90;;;;;;4992371;28;20304;-45
2022/07/04 05:13:06;;;;;;;18.30;5.60;;;23.80;99.90;;;;;;4993351;28;20038;-46
2022/07/04 05:15:33;;;;;;;20.33;6.10;;;23.80;99.90;;;;;;4993939;28;20269;-45
2022/07/04 05:17:58;;;;;;;17.08;6.18;;;23.80;99.90;;;;;;4993838;28;20085;-45
2022/07/04 05:20:24;;;;;;;15.82;5.68;;;23.90;99.90;;;;;;4993800;28;20030;-45
2022/07/04 05:22:50;;;;;;;17.02;5.22;;;23.90;99.90;;;;;;4993705;28;20031;-45
2022/07/04 05:25:16;;;;;;;18.10;5.60;;;23.90;99.90;;;;;;4993826;28;20041;-45
2022/07/04 05:27:42;;;;;;;15.60;5.63;;;23.90;99.90;;;;;;4993761;28;20015;-46
2022/07/04 05:30:08;;;;;;;15.20;6.38;;;23.90;99.90;;;;;;4993637;28;20050;-45
2022/07/04 05:32:37;;;;;;;20.25;6.55;;;23.90;99.90;;;;;;4993458;28;20040;-48
2022/07/04 05:35:03;;;;;;;17.92;6.25;;;23.90;99.90;;;;;;4993655;28;20050;-45
2022/07/04 05:37:29;;;;;;;23.73;6.13;;;23.90;99.90;;;;;;4993427;28;20366;-45
2022/07/04 05:39:55;;;;;;;13.43;5.93;;;23.90;99.90;;;;;;4993523;28;20061;-46
2022/07/04 05:42:21;;;;;;;17.55;5.55;;;23.80;99.90;;;;;;4992865;28;20074;-45
2022/07/04 05:44:47;;;;;;;16.88;6.10;;;23.90;99.90;;;;;;4993384;28;20125;-46
2022/07/04 05:47:12;;;;;;;25.95;6.40;;;23.90;99.90;;;;;;4993280;28;20101;-46
2022/07/04 05:49:38;;;;;;;16.48;6.47;;;23.90;99.90;;;;;;4993098;28;20034;-46
2022/07/04 05:52:04;;;;;;;17.40;5.70;;;23.90;99.90;;;;;;4993130;28;20030;-46
2022/07/04 05:54:30;;;;;;;9.90;5.50;;;23.90;99.90;;;;;;4993210;28;20070;-45
2022/07/04 05:56:55;;;;;;;9.85;5.47;;;23.90;99.90;;;;;;4993118;28;20026;-45
2022/07/04 05:59:21;;;;;;;15.85;5.70;;;24.00;99.90;;;;;;4992997;28;20160;-45
2022/07/04 06:01:47;;;;;;;10.48;4.80;;;24.00;99.90;;;;;;4993086;28;20065;-45
2022/07/04 06:04:13;;;;;;;12.73;5.18;;;24.10;99.90;;;;;;4992795;28;20493;-45
2022/07/04 06:06:39;;;;;;;8.63;4.75;;;24.10;99.90;;;;;;4975535;28;20025;-45
2022/07/04 06:09:05;;;;;;;12.98;5.32;;;24.10;99.90;;;;;;4992734;28;20030;-45
2022/07/04 06:11:31;;;;;;;16.67;4.85;;;24.20;99.90;;;;;;4991572;28;20105;-46
2022/07/04 06:13:57;;;;;;;13.75;5.35;;;24.20;99.90;;;;;;4992722;28;20030;-45
2022/07/04 06:16:22;;;;;;;11.27;5.15;;;24.20;99.90;;;;;;4992843;28;20420;-46
2022/07/04 06:18:48;;;;;;;18.85;6.30;;;24.30;99.90;;;;;;4992996;28;20106;-46
2022/07/04 06:21:14;;;;;;;13.60;5.68;;;24.30;99.90;;;;;;4975109;28;20500;-45
2022/07/04 06:23:39;;;;;;;12.25;5.05;;;24.30;99.90;;;;;;4992592;28;20116;-46
2022/07/04 06:26:05;;;;;;;19.67;5.57;;;24.40;99.90;;;;;;4992419;28;20053;-46
2022/07/04 06:28:31;;;;;;;20.95;7.22;;;24.40;99.90;;;;;;4992405;28;20053;-45
2022/07/04 06:30:57;;;;;;;18.33;5.85;;;24.40;99.90;;;;;;4992364;28;20027;-46
2022/07/04 06:33:23;;;;;;;18.58;5.53;;;24.30;99.90;;;;;;4992385;28;20033;-46
2022/07/04 06:35:54;;;;;;;11.40;5.07;;;24.30;99.90;;;;;;4984508;28;20061;-47
2022/07/04 06:38:28;;;;;;;12.70;5.25;;;24.40;99.90;;;;;;4992447;28;20026;-46
2022/07/04 06:40:57;;;;;;;10.98;4.93;;;24.40;99.90;;;;;;4992214;28;20027;-46
2022/07/04 06:43:23;;;;;;;12.63;5.57;;;24.50;99.90;;;;;;4992208;28;20038;-45
2022/07/04 06:45:49;;;;;;;12.88;5.45;;;24.60;99.90;;;;;;4984275;28;20090;-46
2022/07/04 06:48:15;;;;;;;11.30;4.90;;;24.60;99.90;;;;;;4992196;28;20034;-45
2022/07/04 06:50:41;;;;;;;11.10;5.65;;;24.70;99.90;;;;;;4992075;28;20449;-45
2022/07/04 06:53:09;;;;;;;13.10;6.13;;;24.70;99.90;;;;;;4991970;28;20543;-45
2022/07/04 06:55:38;;;;;;;13.55;7.05;;;24.80;99.90;;;;;;4991168;28;20038;-45
2022/07/04 06:58:05;;;;;;;15.55;6.05;;;24.80;99.90;;;;;;4991971;28;20459;-46
2022/07/04 07:00:31;;;;;;;18.15;7.15;;;24.80;99.90;;;;;;4991797;28;20083;-47
2022/07/04 07:02:58;;;;;;;25.48;7.47;;;24.90;99.90;;;;;;4992024;28;20038;-46
2022/07/04 07:05:28;;;;;;;18.05;6.00;;;24.90;99.90;;;;;;4991915;28;20038;-45
2022/07/04 07:07:54;;;;;;;34.47;8.27;;;24.90;99.90;;;;;;4991943;28;20022;-45
2022/07/04 07:10:20;;;;;;;14.02;6.18;;;24.90;99.90;;;;;;4992059;28;20106;-47
2022/07/04 07:12:46;;;;;;;19.73;5.68;;;25.00;99.90;;;;;;4974500;28;20480;-45
2022/07/04 07:15:13;;;;;;;11.50;4.85;;;25.00;99.90;;;;;;4991749;28;20189;-45
2022/07/04 07:17:39;;;;;;;32.05;6.68;;;25.00;99.90;;;;;;4991675;28;20061;-46
2022/07/04 07:20:06;;;;;;;19.23;7.60;;;25.10;99.90;;;;;;4991818;28;20026;-47
2022/07/04 07:22:32;;;;;;;21.55;7.13;;;25.10;99.90;;;;;;4991622;28;20448;-45
2022/07/04 07:24:58;;;;;;;34.30;18.58;;;25.10;99.90;;;;;;4991646;28;20042;-46
2022/07/04 07:27:23;;;;;;;25.05;7.55;;;25.20;99.90;;;;;;4991831;28;20027;-44
2022/07/04 07:29:49;;;;;;;17.00;6.80;;;25.20;99.90;;;;;;4991516;28;20435;-46
2022/07/04 07:32:17;;;;;;;39.50;12.80;;;25.20;99.90;;;;;;4991415;28;20054;-45
2022/07/04 07:34:43;;;;;;;20.45;7.03;;;25.30;99.90;;;;;;4991652;28;20385;-45
2022/07/04 07:37:08;;;;;;;20.98;9.93;;;25.30;99.90;;;;;;4991619;28;20026;-44
2022/07/04 07:39:34;;;;;;;18.05;7.40;;;25.30;99.90;;;;;;4991799;28;20023;-46
2022/07/04 07:42:00;;;;;;;21.98;7.22;;;25.30;99.90;;;;;;4991509;28;20023;-45
2022/07/04 07:44:26;;;;;;;21.88;7.68;;;25.30;99.90;;;;;;4991351;28;20034;-45
2022/07/04 07:46:51;;;;;;;19.90;9.02;;;25.40;99.90;;;;;;4974411;28;20023;-46
2022/07/04 07:49:17;;;;;;;19.60;7.00;;;25.40;99.90;;;;;;4991450;28;20044;-46
2022/07/04 07:51:43;;;;;;;23.95;6.70;;;25.40;99.90;;;;;;4973921;28;20165;-46
2022/07/04 07:54:09;;;;;;;16.17;7.75;;;25.50;99.90;;;;;;4991496;28;20524;-46
2022/07/04 07:56:35;;;;;;;33.17;11.07;;;25.50;99.90;;;;;;4991310;28;20026;-46
2022/07/04 07:59:01;;;;;;;26.98;8.68;;;25.50;99.90;;;;;;4991361;28;20034;-44
2022/07/04 08:01:27;;;;;;;21.58;7.65;;;25.60;99.90;;;;;;4991345;28;20085;-45
2022/07/04 08:06:37;;;;;;;19.73;6.88;;;25.60;99.90;;;;;;4993248;28;20127;-45
2022/07/04 08:09:03;;;;;;;24.85;7.53;;;25.60;99.90;;;;;;4994986;28;20026;-45
2022/07/04 08:11:29;;;;;;;25.50;11.60;;;25.60;99.90;;;;;;4995041;28;20034;-46
2022/07/04 08:13:55;;;;;;;26.42;9.55;;;25.60;99.90;;;;;;4995092;28;20023;-45
2022/07/04 08:16:21;;;;;;;16.05;6.68;;;25.70;99.90;;;;;;4977443;28;20380;-45
2022/07/04 08:18:46;;;;;;;20.02;6.85;;;25.70;99.90;;;;;;4994965;28;20380;-45
2022/07/04 08:21:13;;;;;;;17.45;6.55;;;25.70;99.90;;;;;;4994845;28;20081;-45
2022/07/04 08:23:40;;;;;;;18.30;6.18;;;25.70;99.90;;;;;;4994777;28;20026;-45
2022/07/04 08:26:06;;;;;;;26.52;7.40;;;25.70;99.90;;;;;;4994737;28;20385;-45
2022/07/04 08:28:32;;;;;;;13.73;5.35;;;25.70;99.90;;;;;;4994551;28;20033;-45
2022/07/04 08:30:58;;;;;;;21.40;7.43;;;25.80;99.90;;;;;;4994639;28;20432;-46
2022/07/04 08:33:25;;;;;;;16.00;5.72;;;25.80;99.90;;;;;;4994823;28;20023;-46
2022/07/04 08:35:51;;;;;;;17.00;5.63;;;25.80;99.90;;;;;;4994425;28;20515;-46
2022/07/04 08:38:17;;;;;;;15.95;6.93;;;25.90;99.90;;;;;;4994479;28;20031;-46
2022/07/04 08:40:43;;;;;;;15.07;5.93;;;25.90;99.90;;;;;;4994407;28;20019;-46
2022/07/04 08:43:13;;;;;;;11.90;4.70;;;26.00;99.90;;;;;;4994455;28;20026;-46
2022/07/04 08:45:40;;;;;;;24.45;5.90;;;26.00;99.90;;;;;;4994223;28;20046;-46
2022/07/04 08:48:08;;;;;;;18.60;6.47;;;26.10;99.90;;;;;;4976839;28;20041;-46
2022/07/04 08:50:47;;;;;;;11.25;5.30;;;26.10;99.90;;;;;;4994277;28;20535;-46
2022/07/04 08:53:20;;;;;;;20.63;5.53;;;26.10;99.90;;;;;;4993131;28;20029;-45
2022/07/04 08:58:33;;;;;;;16.20;5.45;;;26.20;99.90;;;;;;4994037;28;20030;-46
2022/07/04 09:00:59;;;;;;;;;;;26.20;99.90;;;;;;4994446;28;20496;-46
2022/07/04 09:03:27;;;;;;;14.02;4.82;;;26.20;99.90;;;;;;4994367;28;19905;-46
2022/07/04 09:05:53;;;;;;;;;;;26.30;99.90;;;;;;4994434;28;20042;-45
2022/07/04 09:08:19;;;;;;;17.10;5.55;;;26.30;99.90;;;;;;4993967;28;19913;-46
2022/07/04 09:10:46;;;;;;;17.05;5.97;;;26.30;99.90;;;;;;4976454;28;20035;-46
2022/07/04 09:13:17;;;;;;;16.90;5.97;;;26.30;99.90;;;;;;4993773;28;20027;-47
2022/07/04 09:15:45;;;;;;;12.00;5.72;;;26.30;99.90;;;;;;4976421;28;20065;-46
2022/07/04 09:18:28;;;;;;;14.85;5.38;;;26.30;99.90;;;;;;4992869;28;20057;-46
2022/07/04 09:20:56;;;;;;;18.52;6.68;;;26.40;99.90;;;;;;4993517;28;20122;-46
2022/07/04 09:23:33;;;;;;;14.75;5.68;;;26.40;99.90;;;;;;4993621;28;20027;-46
2022/07/04 09:26:17;;;;;;;13.30;5.20;;;26.40;99.90;;;;;;4993712;28;20031;-47
2022/07/04 09:28:50;;;;;;;16.27;6.18;;;26.40;99.90;;;;;;4993641;28;20469;-46
2022/07/04 09:31:18;;;;;;;11.43;5.05;;;26.50;99.90;;;;;;4976242;28;20030;-47
2022/07/04 09:33:49;;;;;;;11.50;5.50;;;26.50;99.90;;;;;;4993484;28;20023;-46
2022/07/04 09:36:16;;;;;;;12.90;6.10;;;26.50;99.90;;;;;;4993469;28;20014;-45
2022/07/04 09:38:42;;;;;;;11.73;4.60;;;26.60;99.90;;;;;;4993502;28;20054;-45
2022/07/04 09:41:29;;;;;;;10.95;4.97;;;26.60;99.90;;;;;;4993335;28;20488;-46
2022/07/04 09:44:03;;;;;;;10.70;4.95;;;26.60;99.90;;;;;;4993244;28;20423;-46
2022/07/04 09:46:29;;;;;;;15.52;5.50;;;26.60;99.90;;;;;;4993521;28;20105;-46
2022/07/04 09:48:55;;;;;;;16.92;5.38;;;26.60;99.90;;;;;;4993278;28;20097;-47
2022/07/04 09:51:36;;;;;;;16.48;6.15;;;26.70;99.90;;;;;;4993286;28;20041;-46
2022/07/04 09:54:26;;;;;;;11.40;5.20;;;26.70;99.90;;;;;;4993431;28;20069;-46
2022/07/04 09:56:57;;;;;;;10.43;4.63;;;26.70;99.90;;;;;;4993092;28;20019;-46
2022/07/04 09:59:24;;;;;;;14.00;5.97;;;26.80;99.90;;;;;;4992847;28;20035;-46
2022/07/04 10:01:51;;;;;;;14.43;5.20;;;26.80;99.90;;;;;;4992904;28;20133;-47
2022/07/04 10:04:17;;;;;;;15.57;4.93;;;26.80;99.90;;;;;;4992882;28;20051;-47
2022/07/04 10:06:44;;;;;;;16.75;5.85;;;26.80;99.90;;;;;;4992795;28;20027;-46
2022/07/04 10:09:16;;;;;;;15.63;5.43;;;26.90;99.90;;;;;;4992688;28;20149;-46
2022/07/04 10:11:45;;;;;;;12.48;5.22;;;26.90;99.90;;;;;;4992792;28;20026;-47
2022/07/04 10:14:13;;;;;;;15.82;4.78;;;26.90;99.90;;;;;;4992698;28;20507;-47
2022/07/04 10:16:40;;;;;;;9.55;4.55;;;26.90;99.90;;;;;;4992769;28;20062;-46
2022/07/04 10:19:07;;;;;;;16.20;5.38;;;27.00;99.90;;;;;;4992595;28;20033;-46
2022/07/04 10:21:33;;;;;;;;;;;27.00;99.90;;;;;;4993329;28;20646;-47
2022/07/04 10:24:00;;;;;;;18.08;5.05;;;27.00;99.90;;;;;;4992717;28;19981;-47
2022/07/04 10:26:29;;;;;;;11.07;4.82;;;27.10;99.90;;;;;;4991228;28;20034;-46
2022/07/04 10:28:55;;;;;;;13.55;4.70;;;27.10;99.90;;;;;;4991353;28;20027;-46
2022/07/04 10:31:24;;;;;;;15.57;5.10;;;27.10;99.90;;;;;;4992393;28;20022;-46
2022/07/04 10:33:52;;;;;;;10.73;4.82;;;27.10;99.90;;;;;;4992402;28;20034;-45
2022/07/04 10:36:20;;;;;;;14.18;5.47;;;27.20;99.90;;;;;;4992434;28;20023;-46
2022/07/04 10:38:51;;;;;;;14.38;4.85;;;27.20;99.90;;;;;;4992179;28;20480;-46
2022/07/04 10:41:23;;;;;;;21.92;4.43;;;27.20;99.90;;;;;;4992297;28;20076;-46
2022/07/04 10:44:17;;;;;;;14.98;5.05;;;27.20;99.90;;;;;;4992161;28;20439;-46
2022/07/04 10:46:49;;;;;;;16.77;6.38;;;27.20;99.90;;;;;;4992184;28;20038;-47
2022/07/04 10:49:15;;;;;;;11.10;4.88;;;27.30;99.90;;;;;;4992111;28;20439;-47
2022/07/04 10:51:50;;;;;;;13.90;4.82;;;27.30;99.90;;;;;;4992060;28;20022;-47
2022/07/04 10:54:30;;;;;;;16.35;4.65;;;27.30;99.90;;;;;;4992093;28;20065;-47
2022/07/04 10:56:57;;;;;;;12.10;4.70;;;27.40;99.90;;;;;;4991987;28;20038;-46
2022/07/04 10:59:28;;;;;;;17.02;5.43;;;27.40;99.90;;;;;;4991927;28;20032;-44
2022/07/04 11:02:06;;;;;;;14.40;5.93;;;27.40;99.90;;;;;;4992017;28;20509;-45
2022/07/04 11:04:50;;;;;;;19.00;5.82;;;27.50;99.90;;;;;;4992095;28;20496;-47
2022/07/04 11:07:18;;;;;;;15.23;5.22;;;27.50;99.90;;;;;;4992048;28;20034;-46
2022/07/04 11:09:44;;;;;;;16.80;4.88;;;27.50;99.90;;;;;;4991892;28;20105;-47
2022/07/04 11:12:14;;;;;;;13.88;4.90;;;27.50;99.90;;;;;;4991887;28;20038;-47
2022/07/04 11:14:44;;;;;;;13.95;4.55;;;27.60;99.90;;;;;;4991800;28;20750;-46
2022/07/04 11:17:26;;;;;;;15.73;4.47;;;27.60;99.90;;;;;;4991661;28;20343;-47
2022/07/04 11:20:00;;;;;;;15.80;4.72;;;27.70;99.90;;;;;;4991701;28;20094;-46
2022/07/04 11:22:26;;;;;;;20.88;5.45;;;27.70;99.90;;;;;;4991730;28;20392;-47
2022/07/04 11:24:53;;;;;;;14.73;5.68;;;27.70;99.90;;;;;;4991748;28;20081;-46
2022/07/04 11:27:22;;;;;;;18.73;5.75;;;27.70;99.90;;;;;;4991739;28;20026;-53
2022/07/04 11:29:54;;;;;;;17.80;4.20;;;27.80;99.90;;;;;;4991716;28;20113;-45
2022/07/04 11:32:21;;;;;;;14.85;5.25;;;27.80;99.90;;;;;;4991453;28;20269;-46
2022/07/04 11:34:48;;;;;;;13.57;5.03;;;27.80;99.90;;;;;;4974170;28;20117;-45
2022/07/04 11:37:14;;;;;;;16.63;5.80;;;27.80;99.90;;;;;;4991632;28;20530;-47
2022/07/04 11:39:40;;;;;;;17.45;6.20;;;27.90;99.90;;;;;;4991594;28;20022;-45
2022/07/04 11:45:02;;;;;;;14.32;6.50;;;27.90;99.90;;;;;;4995648;28;20045;-46
2022/07/04 11:47:42;;;;;;;14.20;6.75;;;27.90;99.90;;;;;;4996022;28;20130;-46
2022/07/04 11:50:19;;;;;;;17.23;7.82;;;27.90;99.90;;;;;;4983846;28;20026;-48
2022/07/04 11:52:51;;;;;;;21.20;7.63;;;28.00;99.90;;;;;;4980131;28;20439;-46
2022/07/04 11:55:17;;;;;;;19.10;7.68;;;28.00;99.90;;;;;;4988634;28;20562;-44
2022/07/04 11:57:52;;;;;;;23.48;10.05;;;28.00;99.90;;;;;;4993464;28;20395;-45
2022/07/04 12:00:20;;;;;;;17.60;7.45;;;28.30;99.90;;;;;;4973677;28;20440;-47
2022/07/04 12:02:48;;;;;;;15.98;5.75;;;28.60;99.90;;;;;;4985020;28;20089;-46
2022/07/04 12:05:15;;;;;;;16.40;7.07;;;28.90;99.90;;;;;;4986445;28;20038;-47
2022/07/04 12:07:43;;;;;;;20.50;5.50;;;29.00;99.90;;;;;;4978506;28;20039;-46
2022/07/04 12:10:18;;;;;;;14.20;4.30;;;29.20;99.90;;;;;;4991765;28;20023;-47
2022/07/04 12:12:56;;;;;;;20.35;5.10;;;29.40;99.90;;;;;;4988682;28;20492;-45
2022/07/04 12:15:24;;;;;;;17.42;5.53;;;29.40;99.90;;;;;;4982728;28;20101;-44
2022/07/04 12:17:55;;;;;;;18.17;6.65;;;29.60;99.90;;;;;;4973538;28;20035;-46
2022/07/04 12:20:23;;;;;;;19.77;4.18;;;29.60;99.90;;;;;;4956038;28;20027;-46
2022/07/04 12:22:57;;;;;;;19.80;5.65;;;29.60;99.90;;;;;;4973490;28;20452;-46
2022/07/04 12:25:36;;;;;;;15.95;6.00;;;29.70;99.90;;;;;;4973378;28;20392;-46
2022/07/04 12:28:11;;;;;;;20.00;7.47;;;29.80;99.90;;;;;;4967266;28;20019;-46
2022/07/04 12:30:39;;;;;;;19.50;5.05;;;29.90;99.90;;;;;;4984972;28;20121;-45
2022/07/04 12:33:10;;;;;;;11.00;4.60;;;29.90;99.90;;;;;;4995787;28;20073;-46
2022/07/04 12:35:38;;;;;;;17.05;6.80;;;30.00;99.90;;;;;;4994785;28;20026;-45
2022/07/04 12:38:12;;;;;;;16.25;5.80;;;30.10;99.90;;;;;;4990943;28;20105;-46
2022/07/04 12:40:54;;;;;;;18.40;7.38;;;30.20;99.90;;;;;;4977958;28;20085;-46
2022/07/04 12:43:24;;;;;;;15.77;4.38;;;30.30;99.90;;;;;;4975003;28;20023;-46
2022/07/04 12:45:56;;;;;;;19.30;6.88;;;30.30;99.90;;;;;;4972435;28;20038;-46
2022/07/04 12:48:25;;;;;;;11.60;4.63;;;30.20;99.90;;;;;;4994350;28;20027;-45
2022/07/04 12:50:52;;;;;;;16.52;6.10;;;30.20;99.90;;;;;;4994454;28;20030;-46
2022/07/04 12:53:18;;;;;;;;;;;30.00;99.90;;;;;;4992372;28;20114;-48
2022/07/04 12:55:46;;;;;;;14.63;7.53;;;29.90;99.90;;;;;;4992338;28;19909;-46